Time;durP1;ratioP1;P1;durP2;ratioP2;P2;SDS_P1;SDS_P2;PMS_P1;PMS_P2;Temp;Humidity;BMP_temperature;BMP_pressure;BME280_temperature;BME280_humidity;BME280_pressure;Samples;Min_cycle;Max_cycle;Signal;HPM_P1;HPM_P2
2023/10/28 00:00:32;;;;;;;9.70;5.80;;;;;;;;;;5910702;28;20040;-70
2023/10/28 00:03:24;;;;;;;5.88;5.00;;;;;;;;;;5898693;28;20446;-70
2023/10/28 00:06:15;;;;;;;5.60;4.47;;;;;;;;;;5887371;28;20052;-71
2023/10/28 00:09:06;;;;;;;8.57;5.65;;;;;;;;;;5887239;28;20045;-71
2023/10/28 00:11:56;;;;;;;6.63;5.75;;;;;;;;;;5887798;28;20055;-71
2023/10/28 00:14:47;;;;;;;8.05;5.07;;;;;;;;;;5887391;28;20059;-70
2023/10/28 00:17:38;;;;;;;6.78;5.22;;;;;;;;;;5887237;28;20052;-71
2023/10/28 00:20:29;;;;;;;7.60;5.60;;;;;;;;;;5887064;28;20494;-71
2023/10/28 00:23:20;;;;;;;5.43;4.47;;;;;;;;;;5887215;28;20059;-71
2023/10/28 00:26:11;;;;;;;5.45;4.78;;;;;;;;;;5886880;28;20540;-71
2023/10/28 00:29:01;;;;;;;12.43;5.85;;;;;;;;;;5886926;28;20051;-71
2023/10/28 00:31:53;;;;;;;9.57;5.57;;;;;;;;;;5887416;28;20049;-71
2023/10/28 00:34:44;;;;;;;5.28;4.47;;;;;;;;;;5887085;28;20053;-70
2023/10/28 00:37:35;;;;;;;7.40;4.53;;;;;;;;;;5886889;28;20112;-70
2023/10/28 00:40:28;;;;;;;4.28;3.88;;;;;;;;;;5886869;28;20186;-71
2023/10/28 00:43:22;;;;;;;5.63;3.38;;;;;;;;;;5885619;28;20049;-71
2023/10/28 00:46:14;;;;;;;6.05;3.85;;;;;;;;;;5886681;28;20517;-71
2023/10/28 00:49:06;;;;;;;10.98;7.18;;;;;;;;;;5886603;28;20052;-71
2023/10/28 00:51:58;;;;;;;4.28;3.80;;;;;;;;;;5885825;28;20095;-70
2023/10/28 00:54:51;;;;;;;4.40;4.00;;;;;;;;;;5885834;28;20045;-71
2023/10/28 00:57:43;;;;;;;4.78;3.50;;;;;;;;;;5885205;28;20073;-70
2023/10/28 01:00:35;;;;;;;6.43;4.70;;;;;;;;;;5886749;28;20521;-71
2023/10/28 01:03:28;;;;;;;6.80;4.38;;;;;;;;;;5886406;28;20625;-71
2023/10/28 01:06:20;;;;;;;5.40;4.53;;;;;;;;;;5887989;28;20041;-71
2023/10/28 01:09:11;;;;;;;5.25;4.75;;;;;;;;;;5888105;28;20045;-71
2023/10/28 01:12:06;;;;;;;5.20;3.85;;;;;;;;;;5886421;28;20076;-71
2023/10/28 01:14:57;;;;;;;7.60;4.45;;;;;;;;;;5886992;28;20127;-71
2023/10/28 01:17:49;;;;;;;7.65;5.25;;;;;;;;;;5886411;28;20057;-71
2023/10/28 01:20:40;;;;;;;6.38;4.60;;;;;;;;;;5886175;28;20049;-71
2023/10/28 01:23:31;;;;;;;7.93;5.68;;;;;;;;;;5886167;28;20056;-71
2023/10/28 01:26:22;;;;;;;6.57;3.60;;;;;;;;;;5885966;28;20052;-71
2023/10/28 01:29:13;;;;;;;11.57;4.90;;;;;;;;;;5886454;28;20486;-71
2023/10/28 01:32:04;;;;;;;13.80;4.25;;;;;;;;;;5886232;28;20422;-71
2023/10/28 01:34:55;;;;;;;5.75;4.53;;;;;;;;;;5886824;28;20122;-71
2023/10/28 01:37:46;;;;;;;6.38;4.32;;;;;;;;;;5886375;28;20048;-71
2023/10/28 01:40:37;;;;;;;4.68;3.22;;;;;;;;;;5886399;28;20055;-71
2023/10/28 01:43:29;;;;;;;5.25;4.43;;;;;;;;;;5909557;28;20066;-71
2023/10/28 01:46:20;;;;;;;6.85;3.53;;;;;;;;;;5909328;28;20135;-71
2023/10/28 01:49:11;;;;;;;3.28;2.97;;;;;;;;;;5909278;28;20048;-72
2023/10/28 01:52:03;;;;;;;5.22;2.40;;;;;;;;;;5909287;28;20497;-71
2023/10/28 01:54:54;;;;;;;19.67;4.50;;;;;;;;;;5909970;28;20414;-71
2023/10/28 01:57:44;;;;;;;12.07;4.38;;;;;;;;;;5907952;28;20048;-71
2023/10/28 02:00:35;;;;;;;6.13;4.68;;;;;;;;;;5909510;28;20051;-71
2023/10/28 02:03:26;;;;;;;4.65;3.63;;;;;;;;;;5909301;28;20045;-71
2023/10/28 02:06:17;;;;;;;8.38;5.25;;;;;;;;;;5912089;28;20045;-71
2023/10/28 02:09:08;;;;;;;9.13;6.22;;;;;;;;;;5913541;28;20514;-71
2023/10/28 02:12:04;;;;;;;13.02;6.38;;;;;;;;;;5913574;28;20055;-71
2023/10/28 02:14:54;;;;;;;8.57;5.47;;;;;;;;;;5913709;28;20627;-71
2023/10/28 02:17:46;;;;;;;11.25;8.05;;;;;;;;;;5913238;28;20048;-71
2023/10/28 02:20:37;;;;;;;14.18;7.07;;;;;;;;;;5913062;28;20045;-71
2023/10/28 02:23:28;;;;;;;9.38;6.70;;;;;;;;;;5911901;28;20410;-71
2023/10/28 02:26:19;;;;;;;8.25;6.82;;;;;;;;;;5912946;28;20052;-71
2023/10/28 02:29:10;;;;;;;5.45;4.93;;;;;;;;;;5913102;28;20414;-71
2023/10/28 02:32:01;;;;;;;6.60;5.03;;;;;;;;;;5912915;28;20129;-71
2023/10/28 02:34:52;;;;;;;6.85;4.72;;;;;;;;;;5913238;28;20052;-71
2023/10/28 02:37:43;;;;;;;9.07;5.30;;;;;;;;;;5912804;28;20135;-72
2023/10/28 02:40:33;;;;;;;6.00;4.13;;;;;;;;;;5912718;28;20047;-72
2023/10/28 02:43:24;;;;;;;5.90;4.35;;;;;;;;;;5912553;28;20048;-72
2023/10/28 02:46:25;;;;;;;5.93;3.40;;;;;;;;;;5911108;28;20044;-72
2023/10/28 02:49:16;;;;;;;5.88;3.63;;;;;;;;;;5912560;28;20060;-72
2023/10/28 02:52:07;;;;;;;6.97;3.80;;;;;;;;;;5912589;28;20044;-71
2023/10/28 02:54:57;;;;;;;7.53;3.42;;;;;;;;;;5913006;28;20060;-71
2023/10/28 02:57:48;;;;;;;4.63;3.45;;;;;;;;;;5912478;28;20430;-71
2023/10/28 03:00:39;;;;;;;6.78;3.08;;;;;;;;;;5912533;28;20532;-71
2023/10/28 03:03:30;;;;;;;4.38;3.03;;;;;;;;;;5912199;28;20041;-71
2023/10/28 03:06:20;;;;;;;5.00;3.10;;;;;;;;;;5911005;28;20061;-71
2023/10/28 03:09:12;;;;;;;3.58;2.78;;;;;;;;;;5912259;28;20044;-71
2023/10/28 03:12:03;;;;;;;3.58;3.03;;;;;;;;;;5912173;28;20063;-71
2023/10/28 03:14:53;;;;;;;3.63;2.63;;;;;;;;;;5912675;28;20053;-71
2023/10/28 03:17:44;;;;;;;3.25;2.58;;;;;;;;;;5911004;28;20055;-71
2023/10/28 03:20:35;;;;;;;5.05;2.35;;;;;;;;;;5912074;28;20044;-71
2023/10/28 03:23:26;;;;;;;2.08;1.73;;;;;;;;;;5911750;28;20582;-71
2023/10/28 03:26:17;;;;;;;2.30;2.10;;;;;;;;;;5911827;28;20048;-71
2023/10/28 03:29:07;;;;;;;4.15;2.22;;;;;;;;;;5911704;28;20048;-71
2023/10/28 03:31:58;;;;;;;1.88;1.55;;;;;;;;;;5912236;28;20131;-71
2023/10/28 03:34:49;;;;;;;2.10;1.75;;;;;;;;;;5911795;28;20060;-71
2023/10/28 03:37:42;;;;;;;2.05;1.73;;;;;;;;;;5911489;28;20480;-71
2023/10/28 03:40:33;;;;;;;1.13;1.00;;;;;;;;;;5910267;28;20578;-71
2023/10/28 03:43:23;;;;;;;1.35;1.25;;;;;;;;;;5911644;28;20055;-70
2023/10/28 03:46:18;;;;;;;3.38;1.85;;;;;;;;;;5911386;28;20410;-71
2023/10/28 03:49:09;;;;;;;1.40;1.30;;;;;;;;;;5911528;28;20094;-71
2023/10/28 03:52:00;;;;;;;3.97;1.73;;;;;;;;;;5911631;28;20127;-70
2023/10/28 03:54:51;;;;;;;3.58;1.80;;;;;;;;;;5911490;28;20052;-71
2023/10/28 03:57:42;;;;;;;1.65;1.13;;;;;;;;;;5910991;28;20521;-70
2023/10/28 04:00:33;;;;;;;1.85;1.58;;;;;;;;;;5911017;28;20147;-70
2023/10/28 04:03:24;;;;;;;1.38;1.27;;;;;;;;;;5910789;28;20509;-70
2023/10/28 04:06:15;;;;;;;1.80;1.30;;;;;;;;;;5910727;28;20090;-70
2023/10/28 04:09:07;;;;;;;2.00;1.48;;;;;;;;;;5910788;28;20098;-70
2023/10/28 04:12:00;;;;;;;1.23;1.10;;;;;;;;;;5911079;28;20055;-71
2023/10/28 04:14:50;;;;;;;2.60;1.20;;;;;;;;;;5910796;28;20049;-71
2023/10/28 04:17:41;;;;;;;13.93;1.30;;;;;;;;;;5910526;28;20517;-70
2023/10/28 04:20:33;;;;;;;1.17;0.82;;;;;;;;;;5902945;28;20520;-70
2023/10/28 04:23:24;;;;;;;0.95;0.90;;;;;;;;;;5910558;28;20410;-71
2023/10/28 04:26:15;;;;;;;1.92;0.82;;;;;;;;;;5898385;28;20045;-71
2023/10/28 04:29:05;;;;;;;5.15;2.10;;;;;;;;;;5880258;28;20084;-71
2023/10/28 04:31:56;;;;;;;4.75;1.63;;;;;;;;;;5890722;28;20045;-71
2023/10/28 04:34:47;;;;;;;1.85;1.48;;;;;;;;;;5895702;28;20076;-70
2023/10/28 04:37:50;;;;;;;1.65;1.13;;;;;;;;;;5901289;28;20063;-71
2023/10/28 04:40:41;;;;;;;1.42;1.17;;;;;;;;;;5900297;28;20055;-71
2023/10/28 04:43:32;;;;;;;1.40;1.20;;;;;;;;;;5897048;28;20047;-71
2023/10/28 04:46:22;;;;;;;1.52;1.42;;;;;;;;;;5897745;28;20055;-70
2023/10/28 04:49:13;;;;;;;1.73;1.48;;;;;;;;;;5897284;28;20045;-71
2023/10/28 04:52:04;;;;;;;1.48;0.95;;;;;;;;;;5897099;28;20048;-71
2023/10/28 04:54:55;;;;;;;1.42;1.17;;;;;;;;;;5896190;28;20114;-71
2023/10/28 04:57:46;;;;;;;4.95;2.20;;;;;;;;;;5896997;28;20052;-71
2023/10/28 05:00:37;;;;;;;1.48;1.38;;;;;;;;;;5899023;28;20388;-71
2023/10/28 05:03:28;;;;;;;1.90;1.77;;;;;;;;;;5895328;28;20055;-71
2023/10/28 05:06:19;;;;;;;1.33;1.13;;;;;;;;;;5894352;28;20044;-71
2023/10/28 05:09:10;;;;;;;3.58;1.15;;;;;;;;;;5910285;28;20519;-71
2023/10/28 05:12:01;;;;;;;1.58;1.38;;;;;;;;;;5910060;28;20178;-71
2023/10/28 05:14:52;;;;;;;1.80;1.60;;;;;;;;;;5910254;28;20048;-71
2023/10/28 05:17:43;;;;;;;1.42;1.33;;;;;;;;;;5909692;28;20414;-71
2023/10/28 05:20:34;;;;;;;1.55;1.10;;;;;;;;;;5910297;28;20071;-71
2023/10/28 05:23:24;;;;;;;7.43;1.67;;;;;;;;;;5909780;28;20060;-71
2023/10/28 05:26:16;;;;;;;2.75;1.35;;;;;;;;;;5910413;28;20048;-71
2023/10/28 05:29:07;;;;;;;4.03;1.48;;;;;;;;;;5909431;28;20059;-71
2023/10/28 05:31:58;;;;;;;2.58;1.55;;;;;;;;;;5910131;28;20395;-71
2023/10/28 05:34:49;;;;;;;2.15;1.40;;;;;;;;;;5897965;28;20118;-71
2023/10/28 05:37:40;;;;;;;3.08;2.05;;;;;;;;;;5885461;28;20411;-71
2023/10/28 05:40:31;;;;;;;1.90;1.38;;;;;;;;;;5888476;28;20133;-71
2023/10/28 05:43:21;;;;;;;3.08;2.45;;;;;;;;;;5890216;28;20060;-71
2023/10/28 05:46:13;;;;;;;1.60;1.40;;;;;;;;;;5891117;28;20498;-71
2023/10/28 05:49:04;;;;;;;4.25;1.42;;;;;;;;;;5889449;28;20072;-71
2023/10/28 05:51:55;;;;;;;0.90;0.90;;;;;;;;;;5891150;28;20561;-71
2023/10/28 05:54:46;;;;;;;7.35;1.73;;;;;;;;;;5890976;28;20049;-71
2023/10/28 05:57:37;;;;;;;2.20;1.90;;;;;;;;;;5890847;28;20044;-71
2023/10/28 06:00:28;;;;;;;0.85;0.85;;;;;;;;;;5890174;28;20052;-72
2023/10/28 06:03:19;;;;;;;4.53;1.15;;;;;;;;;;5890347;28;20041;-72
2023/10/28 06:06:10;;;;;;;1.30;1.20;;;;;;;;;;5890609;28;20060;-71
2023/10/28 06:09:00;;;;;;;3.35;1.45;;;;;;;;;;5890970;28;20055;-71
2023/10/28 06:11:51;;;;;;;2.13;1.58;;;;;;;;;;5890217;28;20095;-71
2023/10/28 06:14:42;;;;;;;2.28;1.52;;;;;;;;;;5901939;28;20668;-71
2023/10/28 06:17:35;;;;;;;2.00;1.65;;;;;;;;;;5913777;28;20148;-71
2023/10/28 06:20:26;;;;;;;2.83;2.35;;;;;;;;;;5913305;28;20063;-72
2023/10/28 06:23:16;;;;;;;2.05;1.73;;;;;;;;;;5913195;28;20049;-72
2023/10/28 06:26:07;;;;;;;5.47;2.17;;;;;;;;;;5912212;28;20068;-72
2023/10/28 06:28:58;;;;;;;3.85;1.60;;;;;;;;;;5913504;28;20057;-71
2023/10/28 06:31:50;;;;;;;2.50;1.90;;;;;;;;;;5913780;28;20045;-72
2023/10/28 06:34:41;;;;;;;2.15;1.98;;;;;;;;;;5913011;28;20052;-71
2023/10/28 06:37:32;;;;;;;4.07;1.08;;;;;;;;;;5913571;28;20489;-71
2023/10/28 06:40:24;;;;;;;4.90;2.33;;;;;;;;;;5913126;28;20056;-71
2023/10/28 06:43:15;;;;;;;2.97;1.90;;;;;;;;;;5912229;28;20125;-72
2023/10/28 06:46:06;;;;;;;3.53;1.77;;;;;;;;;;5913538;28;20053;-72
2023/10/28 06:48:58;;;;;;;2.20;1.83;;;;;;;;;;5913231;28;20057;-72
2023/10/28 06:51:50;;;;;;;5.25;1.23;;;;;;;;;;5911763;28;20044;-72
2023/10/28 06:54:40;;;;;;;2.55;1.80;;;;;;;;;;5912379;28;20056;-72
2023/10/28 06:57:31;;;;;;;3.17;2.30;;;;;;;;;;5913212;28;20040;-72
2023/10/28 07:00:28;;;;;;;2.28;1.30;;;;;;;;;;5912089;28;20048;-72
2023/10/28 07:03:19;;;;;;;2.47;1.55;;;;;;;;;;5912467;28;20040;-73
2023/10/28 07:06:14;;;;;;;1.20;0.93;;;;;;;;;;5912814;28;20205;-72
2023/10/28 07:09:06;;;;;;;2.55;1.20;;;;;;;;;;5911473;28;20052;-72
2023/10/28 07:11:57;;;;;;;1.65;1.08;;;;;;;;;;5913153;28;20056;-73
2023/10/28 07:14:47;;;;;;;1.35;1.00;;;;;;;;;;5911884;28;20056;-72
2023/10/28 07:17:39;;;;;;;3.22;1.92;;;;;;;;;;5912748;28;20555;-72
2023/10/28 07:20:30;;;;;;;0.73;0.70;;;;;;;;;;5912488;28;20048;-73
2023/10/28 07:23:21;;;;;;;0.77;0.77;;;;;;;;;;5911967;28;20105;-73
2023/10/28 07:26:12;;;;;;;0.95;0.82;;;;;;;;;;5912348;28;20481;-73
2023/10/28 07:29:06;;;;;;;3.40;1.38;;;;;;;;;;5911640;28;20055;-73
2023/10/28 07:31:57;;;;;;;0.98;0.88;;;;;;;;;;5912661;28;20059;-73
2023/10/28 07:34:48;;;;;;;1.63;1.52;;;;;;;;;;5911938;28;20045;-73
2023/10/28 07:37:38;;;;;;;1.33;1.23;;;;;;;;;;5912337;28;20053;-73
2023/10/28 07:40:30;;;;;;;1.48;1.38;;;;;;;;;;5912289;28;20490;-73
2023/10/28 07:43:21;;;;;;;1.65;1.50;;;;;;;;;;5911310;28;20060;-73
2023/10/28 07:46:11;;;;;;;1.33;1.10;;;;;;;;;;5912202;28;20067;-73
2023/10/28 07:49:03;;;;;;;0.80;0.70;;;;;;;;;;5911711;28;20048;-73
2023/10/28 07:51:54;;;;;;;4.13;1.52;;;;;;;;;;5912391;28;20055;-74
2023/10/28 07:54:45;;;;;;;4.32;1.65;;;;;;;;;;5911424;28;20049;-73
2023/10/28 07:57:35;;;;;;;1.40;1.00;;;;;;;;;;5911902;28;20081;-74
2023/10/28 08:00:26;;;;;;;1.92;1.48;;;;;;;;;;5911408;28;20051;-74
2023/10/28 08:03:17;;;;;;;3.20;1.55;;;;;;;;;;5910879;28;20048;-74
2023/10/28 08:06:10;;;;;;;0.73;0.73;;;;;;;;;;5911833;28;20048;-74
2023/10/28 08:09:10;;;;;;;9.57;1.35;;;;;;;;;;5911777;28;20045;-74
2023/10/28 08:12:03;;;;;;;1.45;1.35;;;;;;;;;;5911568;28;20055;-75
2023/10/28 08:14:54;;;;;;;1.50;1.15;;;;;;;;;;5910257;28;20056;-74
2023/10/28 08:17:45;;;;;;;1.10;0.75;;;;;;;;;;5911247;28;20062;-74
2023/10/28 08:20:38;;;;;;;1.98;1.27;;;;;;;;;;5911274;28;20131;-74
2023/10/28 08:23:28;;;;;;;1.25;1.15;;;;;;;;;;5911076;28;20044;-73
2023/10/28 08:26:19;;;;;;;1.02;0.95;;;;;;;;;;5911449;28;20063;-74
2023/10/28 08:29:11;;;;;;;2.60;1.20;;;;;;;;;;5911131;28;20094;-74
2023/10/28 08:32:03;;;;;;;0.75;0.75;;;;;;;;;;5911279;28;20131;-74
2023/10/28 08:34:54;;;;;;;1.55;0.90;;;;;;;;;;5897714;28;20476;-74
2023/10/28 08:37:48;;;;;;;1.70;1.38;;;;;;;;;;5887550;28;20136;-74
2023/10/28 08:40:45;;;;;;;1.80;1.13;;;;;;;;;;5887912;28;20056;-74
2023/10/28 08:43:36;;;;;;;0.65;0.65;;;;;;;;;;5886965;28;20041;-72
2023/10/28 08:46:28;;;;;;;1.58;1.10;;;;;;;;;;5887685;28;20059;-73
2023/10/28 08:49:21;;;;;;;1.60;1.23;;;;;;;;;;5887670;28;20040;-73
2023/10/28 08:52:15;;;;;;;1.27;1.15;;;;;;;;;;5887418;28;20060;-72
2023/10/28 08:55:13;;;;;;;0.63;0.38;;;;;;;;;;5904920;28;20055;-73
2023/10/28 08:58:04;;;;;;;3.92;1.05;;;;;;;;;;5910468;28;20044;-73
2023/10/28 09:01:01;;;;;;;0.98;0.90;;;;;;;;;;5910088;28;20055;-73
2023/10/28 09:03:58;;;;;;;1.83;1.00;;;;;;;;;;5910750;28;20044;-73
2023/10/28 09:06:52;;;;;;;0.90;0.80;;;;;;;;;;5910491;28;20445;-73
2023/10/28 09:09:43;;;;;;;1.45;0.85;;;;;;;;;;5910408;28;20048;-73
2023/10/28 09:12:36;;;;;;;2.50;1.48;;;;;;;;;;5910802;28;20509;-73
2023/10/28 09:15:27;;;;;;;1.33;0.98;;;;;;;;;;5910945;28;20040;-73
2023/10/28 09:18:18;;;;;;;1.77;0.93;;;;;;;;;;5915231;28;20048;-73
2023/10/28 09:21:10;;;;;;;0.77;0.65;;;;;;;;;;5915489;28;20064;-73
2023/10/28 09:24:01;;;;;;;1.38;0.98;;;;;;;;;;5915162;28;20048;-73
2023/10/28 09:26:52;;;;;;;3.35;1.30;;;;;;;;;;5896515;28;20057;-73
2023/10/28 09:29:43;;;;;;;0.80;0.80;;;;;;;;;;5891518;28;20418;-73
2023/10/28 09:32:35;;;;;;;0.93;0.75;;;;;;;;;;5891857;28;20130;-74
2023/10/28 09:35:27;;;;;;;4.07;1.27;;;;;;;;;;5891522;28;20051;-73
2023/10/28 09:38:18;;;;;;;2.20;1.00;;;;;;;;;;5891299;28;20048;-73
2023/10/28 09:41:10;;;;;;;0.65;0.45;;;;;;;;;;5891777;28;20069;-73
2023/10/28 09:44:01;;;;;;;0.60;0.60;;;;;;;;;;5891045;28;20424;-73
2023/10/28 09:47:01;;;;;;;0.77;0.70;;;;;;;;;;5890469;28;20049;-74
2023/10/28 09:49:59;;;;;;;1.73;1.25;;;;;;;;;;5911918;28;20045;-74
2023/10/28 09:52:54;;;;;;;1.45;0.70;;;;;;;;;;5915006;28;20041;-74
2023/10/28 09:55:47;;;;;;;1.33;0.82;;;;;;;;;;5914639;28;20053;-73
2023/10/28 09:58:46;;;;;;;1.63;1.00;;;;;;;;;;5914104;28;20048;-74
2023/10/28 10:02:01;;;;;;;1.73;1.15;;;;;;;;;;5913955;28;20413;-73
2023/10/28 10:05:00;;;;;;;1.35;0.85;;;;;;;;;;5914658;28;20050;-73
2023/10/28 10:07:52;;;;;;;4.20;1.55;;;;;;;;;;5913184;28;20048;-74
2023/10/28 10:10:47;;;;;;;0.40;0.40;;;;;;;;;;5898827;28;20075;-72
2023/10/28 10:13:44;;;;;;;0.73;0.65;;;;;;;;;;5890496;28;20044;-73
2023/10/28 10:16:52;;;;;;;2.40;0.52;;;;;;;;;;5889569;28;20053;-74
2023/10/28 10:19:43;;;;;;;;;;;;;;;;;;5896629;28;20497;-73
2023/10/28 10:22:35;;;;;;;1.40;0.70;;;;;;;;;;5914003;28;20006;-74
2023/10/28 10:25:35;;;;;;;0.63;0.50;;;;;;;;;;5913505;28;20493;-71
2023/10/28 10:28:26;;;;;;;0.55;0.40;;;;;;;;;;5913600;28;20045;-74
2023/10/28 10:31:19;;;;;;;4.38;0.90;;;;;;;;;;5913613;28;20052;-73
2023/10/28 10:34:10;;;;;;;1.38;0.57;;;;;;;;;;5913682;28;20150;-72
2023/10/28 10:37:01;;;;;;;0.22;0.20;;;;;;;;;;5913877;28;20048;-74
2023/10/28 10:39:57;;;;;;;0.52;0.43;;;;;;;;;;5913409;28;20053;-74
2023/10/28 10:42:48;;;;;;;0.32;0.32;;;;;;;;;;5913256;28;20055;-73
2023/10/28 10:45:40;;;;;;;0.85;0.52;;;;;;;;;;5913583;28;20057;-74
2023/10/28 10:48:33;;;;;;;2.38;0.63;;;;;;;;;;5911904;28;20055;-73
2023/10/28 10:51:24;;;;;;;1.48;0.80;;;;;;;;;;5896197;28;20497;-74
2023/10/28 10:54:19;;;;;;;0.30;0.30;;;;;;;;;;5889584;28;20083;-75
2023/10/28 10:57:10;;;;;;;0.50;0.40;;;;;;;;;;5890121;28;20053;-74
2023/10/28 11:00:00;;;;;;;1.10;0.50;;;;;;;;;;5889674;28;20060;-74
2023/10/28 11:02:57;;;;;;;0.60;0.50;;;;;;;;;;5890067;28;20052;-74
2023/10/28 11:05:48;;;;;;;6.80;3.42;;;;;;;;;;5890037;28;20056;-75
2023/10/28 11:08:40;;;;;;;9.38;4.10;;;;;;;;;;5889552;28;20057;-74
2023/10/28 11:11:35;;;;;;;5.22;3.47;;;;;;;;;;5889355;28;20055;-74
2023/10/28 11:14:26;;;;;;;0.40;0.40;;;;;;;;;;5889303;28;20410;-73
2023/10/28 11:17:17;;;;;;;2.03;1.20;;;;;;;;;;5889760;28;20057;-75
2023/10/28 11:20:12;;;;;;;1.25;0.77;;;;;;;;;;5892877;28;20474;-75
2023/10/28 11:23:03;;;;;;;1.92;1.13;;;;;;;;;;5912549;28;20052;-74
2023/10/28 11:25:55;;;;;;;1.42;1.27;;;;;;;;;;5913146;28;20047;-73
2023/10/28 11:28:46;;;;;;;0.88;0.68;;;;;;;;;;5912184;28;20048;-75
2023/10/28 11:31:39;;;;;;;0.60;0.55;;;;;;;;;;5912201;28;20056;-76
2023/10/28 11:34:30;;;;;;;1.65;0.75;;;;;;;;;;5912364;28;20052;-75
2023/10/28 11:37:23;;;;;;;2.40;0.63;;;;;;;;;;5910361;28;20067;-75
2023/10/28 11:40:13;;;;;;;5.45;1.13;;;;;;;;;;5909276;28;20063;-75
2023/10/28 11:43:07;;;;;;;1.65;0.57;;;;;;;;;;5888827;28;20522;-76
2023/10/28 11:45:58;;;;;;;1.02;0.73;;;;;;;;;;5889438;28;20045;-77
2023/10/28 11:48:49;;;;;;;5.35;3.05;;;;;;;;;;5884851;28;20126;-77
2023/10/28 11:51:40;;;;;;;5.03;2.45;;;;;;;;;;5897098;28;20505;-75
2023/10/28 11:54:30;;;;;;;4.60;1.95;;;;;;;;;;5888652;28;20049;-76
2023/10/28 11:57:21;;;;;;;2.72;1.83;;;;;;;;;;5888594;28;20053;-74
2023/10/28 12:00:14;;;;;;;2.13;0.85;;;;;;;;;;5887657;28;20422;-75
2023/10/28 12:03:05;;;;;;;1.45;1.13;;;;;;;;;;5888159;28;20410;-76
2023/10/28 12:05:55;;;;;;;1.08;0.88;;;;;;;;;;5888988;28;20052;-76
2023/10/28 12:08:48;;;;;;;2.60;1.30;;;;;;;;;;5888069;28;20052;-78
2023/10/28 12:11:39;;;;;;;2.25;1.88;;;;;;;;;;5887910;28;20059;-77
2023/10/28 12:14:31;;;;;;;2.42;1.55;;;;;;;;;;5888082;28;20605;-78
2023/10/28 12:17:22;;;;;;;1.15;1.00;;;;;;;;;;5888579;28;20054;-75
2023/10/28 12:20:17;;;;;;;2.55;1.35;;;;;;;;;;5887864;28;20053;-77
2023/10/28 12:23:09;;;;;;;3.70;2.30;;;;;;;;;;5891742;28;20055;-75
2023/10/28 12:26:01;;;;;;;1.20;1.05;;;;;;;;;;5911591;28;20502;-75
2023/10/28 12:28:52;;;;;;;1.05;0.80;;;;;;;;;;5911273;28;20052;-76
2023/10/28 12:31:43;;;;;;;2.00;1.10;;;;;;;;;;5900260;28;20503;-76
2023/10/28 12:34:34;;;;;;;2.25;1.45;;;;;;;;;;5887929;28;20049;-77
2023/10/28 12:37:26;;;;;;;1.50;0.98;;;;;;;;;;5888022;28;20418;-78
2023/10/28 12:40:17;;;;;;;2.95;1.65;;;;;;;;;;5887657;28;20055;-76
2023/10/28 12:43:08;;;;;;;2.50;1.10;;;;;;;;;;5887155;28;20053;-79
2023/10/28 12:45:59;;;;;;;1.67;1.20;;;;;;;;;;5888087;28;20057;-78
2023/10/28 12:48:49;;;;;;;7.35;2.95;;;;;;;;;;5887429;28;20433;-77
2023/10/28 12:51:40;;;;;;;8.25;2.20;;;;;;;;;;5895856;28;20048;-77
2023/10/28 12:54:32;;;;;;;3.15;2.05;;;;;;;;;;5910835;28;20568;-77
2023/10/28 12:57:23;;;;;;;1.85;1.60;;;;;;;;;;5910959;28;20075;-78
2023/10/28 13:00:15;;;;;;;2.60;1.98;;;;;;;;;;5889461;28;20057;-78
2023/10/28 13:03:05;;;;;;;8.77;4.25;;;;;;;;;;5885689;28;20513;-77
2023/10/28 13:05:57;;;;;;;3.30;1.88;;;;;;;;;;5887929;28;20071;-78
2023/10/28 13:08:48;;;;;;;2.45;1.45;;;;;;;;;;5887145;28;20059;-77
2023/10/28 13:11:39;;;;;;;4.60;2.30;;;;;;;;;;5887111;28;20064;-77
2023/10/28 13:14:30;;;;;;;2.60;1.50;;;;;;;;;;5887286;28;20079;-77
2023/10/28 13:17:21;;;;;;;2.30;1.10;;;;;;;;;;5887521;28;20053;-78
2023/10/28 13:20:12;;;;;;;2.38;0.65;;;;;;;;;;5886950;28;20457;-78
2023/10/28 13:23:03;;;;;;;3.40;2.13;;;;;;;;;;5886746;28;20045;-77
2023/10/28 13:25:54;;;;;;;1.40;1.30;;;;;;;;;;5887626;28;20072;-77
2023/10/28 13:28:46;;;;;;;5.25;1.83;;;;;;;;;;5886141;28;20526;-78
2023/10/28 13:31:37;;;;;;;4.40;2.40;;;;;;;;;;5886527;28;20375;-78
2023/10/28 13:34:30;;;;;;;4.55;2.78;;;;;;;;;;5886407;28;20045;-78
2023/10/28 13:37:21;;;;;;;8.00;5.10;;;;;;;;;;5886830;28;20061;-77
2023/10/28 13:40:12;;;;;;;13.88;7.10;;;;;;;;;;5886432;28;20049;-77
2023/10/28 13:43:03;;;;;;;24.85;8.85;;;;;;;;;;5899801;28;20048;-77
2023/10/28 13:45:57;;;;;;;12.15;5.07;;;;;;;;;;5910248;28;20052;-77
2023/10/28 13:48:47;;;;;;;5.55;3.67;;;;;;;;;;5909670;28;20053;-77
2023/10/28 13:51:38;;;;;;;8.30;5.85;;;;;;;;;;5909728;28;20053;-77
2023/10/28 13:54:33;;;;;;;4.00;3.60;;;;;;;;;;5909681;28;20383;-77
2023/10/28 13:57:23;;;;;;;8.27;3.53;;;;;;;;;;5910104;28;20063;-77
2023/10/28 14:00:16;;;;;;;5.45;3.55;;;;;;;;;;5910285;28;20052;-76
2023/10/28 14:03:07;;;;;;;8.98;3.97;;;;;;;;;;5914566;28;20390;-77
2023/10/28 14:05:58;;;;;;;7.90;4.47;;;;;;;;;;5914498;28;20078;-75
2023/10/28 14:08:49;;;;;;;3.65;2.05;;;;;;;;;;5913829;28;20059;-75
2023/10/28 14:11:40;;;;;;;5.35;3.00;;;;;;;;;;5913540;28;20055;-75
2023/10/28 14:14:31;;;;;;;2.10;1.60;;;;;;;;;;5913926;28;20052;-75
2023/10/28 14:17:22;;;;;;;4.30;2.75;;;;;;;;;;5913975;28;20048;-75
2023/10/28 14:20:13;;;;;;;1.27;1.17;;;;;;;;;;5912158;28;20079;-73
2023/10/28 14:23:04;;;;;;;5.10;2.47;;;;;;;;;;5912976;28;20040;-74
2023/10/28 14:25:55;;;;;;;1.90;1.52;;;;;;;;;;5913429;28;20049;-74
2023/10/28 14:28:46;;;;;;;3.83;2.97;;;;;;;;;;5913440;28;20056;-75
2023/10/28 14:31:37;;;;;;;5.50;2.53;;;;;;;;;;5913929;28;20395;-72
2023/10/28 14:34:28;;;;;;;5.85;2.78;;;;;;;;;;5913622;28;20049;-73
2023/10/28 14:37:18;;;;;;;1.88;1.73;;;;;;;;;;5913625;28;20059;-75
2023/10/28 14:40:10;;;;;;;7.85;2.00;;;;;;;;;;5913396;28;20063;-74
2023/10/28 14:43:01;;;;;;;11.00;7.55;;;;;;;;;;5913482;28;20551;-72
2023/10/28 14:45:52;;;;;;;32.53;17.10;;;;;;;;;;5913944;28;20498;-74
2023/10/28 14:48:43;;;;;;;14.65;5.13;;;;;;;;;;5913375;28;20399;-74
2023/10/28 14:51:34;;;;;;;3.20;1.67;;;;;;;;;;5913758;28;20509;-74
2023/10/28 14:54:27;;;;;;;5.25;3.47;;;;;;;;;;5928857;28;20490;-74
2023/10/28 14:57:18;;;;;;;15.82;7.53;;;;;;;;;;5893862;28;20576;-75
2023/10/28 15:00:10;;;;;;;25.92;14.50;;;;;;;;;;5889859;28;20052;-74
2023/10/28 15:03:02;;;;;;;13.55;7.80;;;;;;;;;;5890101;28;20059;-73
2023/10/28 15:05:53;;;;;;;6.97;4.35;;;;;;;;;;5896814;28;20058;-74
2023/10/28 15:08:49;;;;;;;4.68;3.55;;;;;;;;;;5912950;28;20048;-74
2023/10/28 15:11:42;;;;;;;19.70;7.57;;;;;;;;;;5912706;28;20496;-75
2023/10/28 15:14:35;;;;;;;11.13;7.25;;;;;;;;;;5912008;28;20055;-75
2023/10/28 15:17:26;;;;;;;8.20;4.93;;;;;;;;;;5912738;28;20225;-75
2023/10/28 15:20:17;;;;;;;8.90;5.82;;;;;;;;;;5912328;28;20049;-75
2023/10/28 15:23:09;;;;;;;9.77;5.75;;;;;;;;;;5911231;28;20134;-74
2023/10/28 15:26:06;;;;;;;13.45;8.15;;;;;;;;;;5907144;28;20049;-75
2023/10/28 15:28:56;;;;;;;23.90;10.93;;;;;;;;;;5889201;28;20120;-75
2023/10/28 15:31:47;;;;;;;18.65;11.73;;;;;;;;;;5889351;28;20053;-75
2023/10/28 15:34:42;;;;;;;20.20;8.23;;;;;;;;;;5888896;28;20106;-75
2023/10/28 15:37:33;;;;;;;25.52;9.65;;;;;;;;;;5888922;28;20513;-75
2023/10/28 15:40:24;;;;;;;12.20;7.15;;;;;;;;;;5888600;28;20049;-75
2023/10/28 15:43:15;;;;;;;9.23;4.97;;;;;;;;;;5888639;28;20049;-76
2023/10/28 15:46:09;;;;;;;4.50;3.22;;;;;;;;;;5888512;28;20041;-75
2023/10/28 15:49:01;;;;;;;14.07;7.65;;;;;;;;;;5888496;28;20045;-75
2023/10/28 15:51:52;;;;;;;14.02;8.93;;;;;;;;;;5889214;28;20052;-76
2023/10/28 15:54:42;;;;;;;17.33;7.82;;;;;;;;;;5888326;28;20063;-75
2023/10/28 15:57:33;;;;;;;18.52;8.82;;;;;;;;;;5888207;28;20052;-75
2023/10/28 16:00:24;;;;;;;28.50;13.30;;;;;;;;;;5895846;28;20049;-76
2023/10/28 16:03:16;;;;;;;22.00;11.57;;;;;;;;;;5889078;28;20041;-76
2023/10/28 16:06:12;;;;;;;13.80;9.02;;;;;;;;;;5894105;28;20494;-75
2023/10/28 16:09:03;;;;;;;21.67;12.35;;;;;;;;;;5889266;28;20049;-75
2023/10/28 16:11:54;;;;;;;20.17;10.00;;;;;;;;;;5888728;28;20083;-76
2023/10/28 16:14:46;;;;;;;15.77;10.05;;;;;;;;;;5887971;28;20491;-76
2023/10/28 16:17:38;;;;;;;20.98;12.15;;;;;;;;;;5887760;28;20501;-76
2023/10/28 16:20:29;;;;;;;22.40;13.23;;;;;;;;;;5887802;28;20504;-75
2023/10/28 16:23:19;;;;;;;21.88;13.25;;;;;;;;;;5887349;28;20128;-76
2023/10/28 16:26:10;;;;;;;15.48;10.18;;;;;;;;;;5886404;28;20072;-75
2023/10/28 16:29:01;;;;;;;16.75;10.27;;;;;;;;;;5906899;28;20044;-75
2023/10/28 16:31:53;;;;;;;9.07;5.97;;;;;;;;;;5911548;28;20052;-76
2023/10/28 16:34:48;;;;;;;6.78;4.22;;;;;;;;;;5910940;28;20074;-75
2023/10/28 16:37:39;;;;;;;15.35;6.28;;;;;;;;;;5910838;28;20048;-76
2023/10/28 16:40:30;;;;;;;13.25;5.68;;;;;;;;;;5887538;28;20052;-76
2023/10/28 16:43:25;;;;;;;12.13;8.73;;;;;;;;;;5887508;28;20045;-75
2023/10/28 16:46:17;;;;;;;6.72;5.13;;;;;;;;;;5887491;28;20063;-75
2023/10/28 16:49:11;;;;;;;18.88;7.18;;;;;;;;;;5905768;28;20041;-75
2023/10/28 16:52:02;;;;;;;13.38;6.57;;;;;;;;;;5910781;28;20062;-75
2023/10/28 16:54:53;;;;;;;5.88;4.00;;;;;;;;;;5911292;28;20442;-76
2023/10/28 16:57:44;;;;;;;5.97;4.85;;;;;;;;;;5903933;28;20453;-76
2023/10/28 17:00:37;;;;;;;10.07;5.55;;;;;;;;;;5887365;28;20041;-76
2023/10/28 17:03:27;;;;;;;9.20;5.65;;;;;;;;;;5887161;28;20049;-76
2023/10/28 17:06:18;;;;;;;61.90;26.15;;;;;;;;;;5887290;28;20482;-76